»·PEaware :: N900TB KUAO-KBLI

N900TB :: KUAO-KBLI

FLIGHT INFORMATION

Flight Status: Arrived
Operator: Privately registered:
United States
More flights under this callsign
Pilot: Saso K. (7898)
Aircraft: SOCATA TBM-900
(TBM9)
More flights by this aircraft type
Origin: KUAO Aurora State
United States
Destination: KBLI Bellingham Intl
United States
More flights between these airports :: More routes between these airports
Route: GLARA2 GLARA V448 BTG V495 SEA V23 PAE MADEE4
File this flight plan on PilotEdge
Remarks: CUSTOM WX
Altitude:
(Current/Filed)
23,000ft
Speed:
(Current/Filed)
300kts
Departed: 05-Sep-18 01:48 PM
Arrived: 05-Sep-18 04:07 PM
Distance/Time
Traveled:
213nm/2:18
Distance/Time
To Go:
Arrived

Flight Plot

Page will automatically refresh every two minutes.

Flight plan parsing failed; only flown route is shown


Map Options




Map Legend


Flown Route
Filed Route
Departure Airport
Arrival Airport
Navaid (VOR, NDB)
Fix

Horizontal Profiles

Position Reports

Time Latitude Longitude Heading Altitude Ground
Speed
05-Sep-18 12:55 45.621525 -122.655312 183 29ft 0kts
05-Sep-18 12:56 45.621525 -122.655312 183 29ft 0kts
05-Sep-18 12:57 45.621525 -122.655312 183 29ft 0kts
05-Sep-18 12:58 45.621525 -122.655312 183 29ft 0kts
05-Sep-18 12:59 45.621525 -122.655312 183 29ft 0kts
05-Sep-18 13:00 45.621525 -122.655312 183 29ft 0kts
05-Sep-18 13:01 45.621525 -122.655312 183 29ft 0kts
05-Sep-18 13:02 45.621525 -122.655312 183 29ft 0kts
05-Sep-18 13:03 45.621525 -122.655312 183 29ft 0kts
05-Sep-18 13:04 45.621525 -122.655312 183 29ft 0kts
05-Sep-18 13:05 45.621525 -122.655312 183 29ft 0kts
05-Sep-18 13:06 45.621525 -122.655312 183 29ft 0kts
05-Sep-18 13:07 45.621525 -122.655312 183 29ft 0kts
05-Sep-18 13:08 45.621525 -122.655312 183 29ft 0kts
05-Sep-18 13:09 45.621525 -122.655312 183 29ft 0kts
05-Sep-18 13:10 45.621525 -122.655312 183 29ft 0kts
05-Sep-18 13:11 45.621525 -122.655312 183 29ft 0kts
05-Sep-18 13:12 45.621525 -122.655312 183 29ft 0kts
05-Sep-18 13:13 45.621525 -122.655312 183 29ft 0kts
05-Sep-18 13:14 45.621525 -122.655312 183 29ft 0kts
05-Sep-18 13:15 45.621525 -122.655312 183 29ft 0kts
05-Sep-18 13:16 45.621525 -122.655312 183 29ft 0kts
05-Sep-18 13:17 45.621525 -122.655312 183 29ft 0kts
05-Sep-18 13:18 45.621525 -122.655312 183 29ft 0kts
05-Sep-18 13:19 45.621525 -122.655312 183 29ft 0kts
05-Sep-18 13:20 45.621525 -122.655312 183 29ft 0kts
05-Sep-18 13:21 45.621525 -122.655312 183 29ft 0kts
05-Sep-18 13:22 45.621525 -122.655312 183 29ft 0kts
05-Sep-18 13:23 45.621525 -122.655312 183 29ft 0kts
05-Sep-18 13:24 45.621525 -122.655312 183 29ft 0kts
05-Sep-18 13:25 45.621525 -122.655312 183 29ft 0kts
05-Sep-18 13:26 45.621525 -122.655312 183 29ft 0kts
05-Sep-18 13:27 45.621525 -122.655312 183 29ft 0kts
05-Sep-18 13:28 45.621525 -122.655312 183 29ft 0kts
05-Sep-18 13:29 45.621525 -122.655312 183 29ft 0kts
05-Sep-18 13:30 45.621525 -122.655312 183 29ft 0kts
05-Sep-18 13:31 45.621525 -122.655312 183 29ft 0kts
05-Sep-18 13:32 45.621525 -122.655312 183 29ft 0kts
05-Sep-18 13:33 45.621525 -122.655312 183 29ft 0kts
05-Sep-18 13:34 45.621525 -122.655312 183 29ft 0kts
05-Sep-18 13:35 45.621525 -122.655312 183 29ft 0kts
05-Sep-18 13:36 45.621525 -122.655312 183 29ft 0kts
05-Sep-18 13:37 45.621525 -122.655312 183 29ft 0kts
05-Sep-18 13:38 45.621525 -122.655312 183 29ft 0kts
05-Sep-18 13:39 45.621525 -122.655312 183 29ft 0kts
05-Sep-18 13:40 45.621525 -122.655312 183 29ft 0kts
05-Sep-18 13:41 45.621525 -122.655312 183 29ft 0kts
05-Sep-18 13:42 45.621323 -122.655128 95 29ft 5kts
05-Sep-18 13:43 45.621001 -122.652966 166 28ft 3kts
05-Sep-18 13:45 45.620288 -122.650411 99 27ft 1kts
05-Sep-18 13:46 45.620287 -122.650407 100 27ft 0kts
05-Sep-18 13:47 45.620287 -122.650407 100 27ft 0kts
05-Sep-18 13:48 45.620287 -122.650407 100 27ft 0kts
05-Sep-18 13:49 45.619842 -122.650530 276 26ft 0kts
05-Sep-18 13:50 45.625951 -122.686089 286 703ft 154kts
05-Sep-18 13:51 45.646316 -122.745366 267 713ft 174kts
05-Sep-18 13:52 45.609781 -122.761414 168 1048ft 167kts
05-Sep-18 13:53 45.566899 -122.755875 186 1654ft 157kts
05-Sep-18 13:54 45.524496 -122.760655 199 1841ft 155kts
05-Sep-18 13:55 45.481377 -122.772558 182 2005ft 173kts
05-Sep-18 13:56 45.435275 -122.772075 181 1993ft 161kts
05-Sep-18 13:57 45.397003 -122.771676 181 1997ft 156kts
05-Sep-18 13:58 45.359454 -122.771272 181 1998ft 153kts
05-Sep-18 13:59 45.336931 -122.771027 182 1999ft 153kts
05-Sep-18 14:18 45.620766 -122.651555 175 29ft 7kts
05-Sep-18 14:19 45.620241 -122.650302 106 27ft 0kts
05-Sep-18 14:20 45.620683 -122.658540 278 88ft 107kts
05-Sep-18 14:21 45.632779 -122.709608 299 771ft 167kts
05-Sep-18 14:22 45.616681 -122.752323 186 1303ft 161kts
05-Sep-18 14:23 45.570166 -122.754989 184 1490ft 180kts
05-Sep-18 14:24 45.522612 -122.757226 184 1999ft 174kts
05-Sep-18 14:25 45.472846 -122.759557 184 1987ft 192kts
05-Sep-18 14:26 45.431666 -122.761475 184 1983ft 195kts
05-Sep-18 14:38 45.247074 -122.768426 275 197ft 0kts
05-Sep-18 14:39 45.247074 -122.768426 275 197ft 0kts
05-Sep-18 14:40 45.247074 -122.768426 275 197ft 0kts
05-Sep-18 14:41 45.247074 -122.768426 275 197ft 0kts
05-Sep-18 14:42 45.247074 -122.768426 275 197ft 0kts
05-Sep-18 14:43 45.247074 -122.768426 275 197ft 0kts
05-Sep-18 14:44 45.247074 -122.768426 275 197ft 0kts
05-Sep-18 14:45 45.247074 -122.768426 275 197ft 0kts
05-Sep-18 14:48 45.247074 -122.768425 275 197ft 0kts
05-Sep-18 14:49 45.247074 -122.768425 275 197ft 0kts
05-Sep-18 14:50 45.247074 -122.768425 275 197ft 0kts
05-Sep-18 14:53 45.248316 -122.767414 359 197ft 0kts
05-Sep-18 14:54 45.248316 -122.767414 359 197ft 0kts
05-Sep-18 14:55 45.248316 -122.767414 359 197ft 0kts
05-Sep-18 14:56 45.248316 -122.767414 359 197ft 0kts
05-Sep-18 14:57 45.248316 -122.767414 359 197ft 0kts
05-Sep-18 14:58 45.248316 -122.767414 359 197ft 0kts
05-Sep-18 14:59 45.248316 -122.767414 359 197ft 0kts
05-Sep-18 15:00 45.248316 -122.767414 359 197ft 0kts
05-Sep-18 15:01 45.248316 -122.767414 359 197ft 0kts
05-Sep-18 15:02 45.248338 -122.767414 359 197ft 2kts
05-Sep-18 15:03 45.247430 -122.768413 189 197ft 0kts
05-Sep-18 15:04 45.247273 -122.768564 264 197ft 3kts
05-Sep-18 15:05 45.249901 -122.768343 6 200ft 10kts
05-Sep-18 15:06 45.253180 -122.767797 3 200ft 19kts
05-Sep-18 15:07 45.253722 -122.767732 354 200ft 0kts
05-Sep-18 15:08 45.253722 -122.767732 354 200ft 0kts
05-Sep-18 15:08 45.253722 -122.767732 354 200ft 0kts
05-Sep-18 15:09 45.253710 -122.768858 199 200ft 9kts
05-Sep-18 15:10 45.236480 -122.772479 192 942ft 129kts
05-Sep-18 15:12 45.225374 -122.724458 62 3416ft 175kts
05-Sep-18 15:13 45.250493 -122.656957 59 4719ft 206kts
05-Sep-18 15:13 45.278295 -122.602926 44 5903ft 197kts
05-Sep-18 15:14 45.324329 -122.594225 356 7353ft 180kts
05-Sep-18 15:15 45.372615 -122.595520 355 9178ft 175kts
05-Sep-18 15:16 45.420392 -122.597483 354 10820ft 184kts
05-Sep-18 15:17 45.469355 -122.598385 357 12850ft 181kts
05-Sep-18 15:18 45.519698 -122.597187 357 14529ft 193kts
05-Sep-18 15:19 45.572703 -122.595878 357 16135ft 198kts
05-Sep-18 15:20 45.627477 -122.594517 356 17864ft 203kts
05-Sep-18 15:21 45.683572 -122.593132 356 19417ft 209kts
05-Sep-18 15:22 45.741417 -122.591683 356 21415ft 213kts
05-Sep-18 15:23 45.801202 -122.582882 1 22994ft 237kts
05-Sep-18 15:24 45.873735 -122.571122 2 22987ft 284kts
05-Sep-18 15:25 45.953365 -122.558131 2 22977ft 297kts
05-Sep-18 15:26 46.035231 -122.544760 2 22975ft 300kts
05-Sep-18 15:27 46.114992 -122.531689 2 22973ft 301kts
05-Sep-18 15:28 46.196626 -122.518275 2 22973ft 301kts
05-Sep-18 15:29 46.278276 -122.504816 2 22973ft 301kts
05-Sep-18 15:30 46.361164 -122.491111 2 22973ft 301kts
05-Sep-18 15:31 46.442998 -122.477539 2 22974ft 301kts
05-Sep-18 15:32 46.521076 -122.464552 2 22974ft 302kts
05-Sep-18 15:33 46.602796 -122.450918 2 22974ft 302kts
05-Sep-18 15:34 46.684262 -122.437286 2 22974ft 302kts
05-Sep-18 15:35 46.765413 -122.423666 2 22974ft 302kts
05-Sep-18 15:36 46.848017 -122.409758 2 22974ft 302kts
05-Sep-18 15:37 46.930336 -122.395854 2 22975ft 302kts
05-Sep-18 15:38 47.012497 -122.381932 2 22975ft 302kts
05-Sep-18 15:39 47.094457 -122.368005 2 22975ft 302kts
05-Sep-18 15:40 47.173003 -122.354634 2 22974ft 302kts
05-Sep-18 15:41 47.252231 -122.341078 3 22970ft 302kts
05-Sep-18 15:42 47.332812 -122.327261 3 22971ft 302kts
05-Sep-18 15:43 47.413533 -122.313378 3 22971ft 302kts
05-Sep-18 15:44 47.490934 -122.306000 359 22772ft 305kts
05-Sep-18 15:45 47.575034 -122.300516 359 21440ft 321kts
05-Sep-18 15:46 47.660451 -122.294917 359 20073ft 326kts
05-Sep-18 15:47 47.742612 -122.289510 0 18755ft 310kts
05-Sep-18 15:48 47.824622 -122.284115 0 17457ft 303kts
05-Sep-18 15:49 47.907009 -122.278659 0 16154ft 301kts
05-Sep-18 15:50 47.986508 -122.297057 346 14895ft 293kts
05-Sep-18 15:51 48.064190 -122.319541 346 13747ft 282kts
05-Sep-18 15:52 48.138515 -122.341110 346 12287ft 286kts
05-Sep-18 15:53 48.213457 -122.362910 346 10802ft 279kts
05-Sep-18 15:54 48.286915 -122.384326 346 9341ft 255kts
05-Sep-18 15:55 48.351492 -122.405341 335 8014ft 227kts
05-Sep-18 15:56 48.409295 -122.439871 335 7342ft 208kts
05-Sep-18 15:57 48.462213 -122.471678 335 7369ft 208kts
05-Sep-18 15:58 48.518142 -122.495033 20 7273ft 227kts
05-Sep-18 15:59 48.512134 -122.418823 153 4603ft 233kts
05-Sep-18 16:00 48.493099 -122.465847 319 3990ft 200kts
05-Sep-18 16:01 48.535454 -122.515052 322 3873ft 194kts
05-Sep-18 16:03 48.578047 -122.537543 358 3437ft 201kts
05-Sep-18 16:04 48.630094 -122.537658 357 2631ft 180kts
05-Sep-18 16:05 48.673690 -122.537514 356 1268ft 145kts
05-Sep-18 16:06 48.704458 -122.539093 352 1178ft 114kts
05-Sep-18 16:07 48.735935 -122.537457 355 1030ft 117kts
05-Sep-18 16:08 48.764057 -122.539038 313 1208ft 113kts
05-Sep-18 16:09 48.792884 -122.537580 0 159ft 38kts
05-Sep-18 16:10 48.796862 -122.536451 93 157ft 6kts
05-Sep-18 16:11 48.796064 -122.534790 156 157ft 2kts
05-Sep-18 16:12 48.794980 -122.534200 161 157ft 5kts
05-Sep-18 16:13 48.793859 -122.532923 142 158ft 4kts
05-Sep-18 16:14 48.792987 -122.532600 229 159ft 3kts
05-Sep-18 16:15 48.792969 -122.532645 240 159ft 0kts

Navigation Log

Ident Type
Flight plan parsing failed, navigation log unavailable